sensor_id;sensor_type;location;lat;lon;timestamp;temperature;humidity
8400;DHT22;4237;47.030;15.396;2023-02-15T00:01:20;0.80;99.90
8400;DHT22;4237;47.030;15.396;2023-02-15T00:03:49;0.90;99.90
8400;DHT22;4237;47.030;15.396;2023-02-15T00:06:18;0.90;99.90
8400;DHT22;4237;47.030;15.396;2023-02-15T00:08:47;0.90;99.90
8400;DHT22;4237;47.030;15.396;2023-02-15T00:11:18;1.00;99.90
8400;DHT22;4237;47.030;15.396;2023-02-15T00:14:11;1.10;99.90
8400;DHT22;4237;47.030;15.396;2023-02-15T00:16:36;1.10;99.90
8400;DHT22;4237;47.030;15.396;2023-02-15T00:19:06;1.20;99.90
8400;DHT22;4237;47.030;15.396;2023-02-15T00:21:36;1.10;99.90
8400;DHT22;4237;47.030;15.396;2023-02-15T00:24:07;1.20;99.90
8400;DHT22;4237;47.030;15.396;2023-02-15T00:26:38;1.20;99.90
8400;DHT22;4237;47.030;15.396;2023-02-15T00:29:08;1.20;99.90
8400;DHT22;4237;47.030;15.396;2023-02-15T00:31:37;1.30;99.90
8400;DHT22;4237;47.030;15.396;2023-02-15T00:34:10;1.30;99.90
8400;DHT22;4237;47.030;15.396;2023-02-15T00:36:38;1.30;99.90
8400;DHT22;4237;47.030;15.396;2023-02-15T00:39:07;1.30;99.90
8400;DHT22;4237;47.030;15.396;2023-02-15T00:41:36;1.30;99.90
8400;DHT22;4237;47.030;15.396;2023-02-15T00:44:05;1.30;99.90
8400;DHT22;4237;47.030;15.396;2023-02-15T00:46:35;1.30;99.90
8400;DHT22;4237;47.030;15.396;2023-02-15T00:49:04;1.40;99.90
8400;DHT22;4237;47.030;15.396;2023-02-15T00:51:33;1.40;99.90
8400;DHT22;4237;47.030;15.396;2023-02-15T00:54:01;1.40;99.90
8400;DHT22;4237;47.030;15.396;2023-02-15T00:56:30;1.50;99.90
8400;DHT22;4237;47.030;15.396;2023-02-15T00:58:58;1.50;99.90
8400;DHT22;4237;47.030;15.396;2023-02-15T01:01:27;1.50;99.90
8400;DHT22;4237;47.030;15.396;2023-02-15T01:03:56;1.60;99.90
8400;DHT22;4237;47.030;15.396;2023-02-15T01:06:24;1.50;99.90
8400;DHT22;4237;47.030;15.396;2023-02-15T01:08:53;1.50;99.90
8400;DHT22;4237;47.030;15.396;2023-02-15T01:11:22;1.50;99.90
8400;DHT22;4237;47.030;15.396;2023-02-15T01:13:54;1.50;99.90
8400;DHT22;4237;47.030;15.396;2023-02-15T01:16:24;1.60;99.90
8400;DHT22;4237;47.030;15.396;2023-02-15T01:18:53;1.60;99.90
8400;DHT22;4237;47.030;15.396;2023-02-15T01:21:25;1.60;99.90
8400;DHT22;4237;47.030;15.396;2023-02-15T01:23:54;1.70;99.90
8400;DHT22;4237;47.030;15.396;2023-02-15T01:26:24;1.70;99.90
8400;DHT22;4237;47.030;15.396;2023-02-15T01:28:53;1.70;99.90
8400;DHT22;4237;47.030;15.396;2023-02-15T01:31:21;1.70;99.90
8400;DHT22;4237;47.030;15.396;2023-02-15T01:33:50;1.70;99.90
8400;DHT22;4237;47.030;15.396;2023-02-15T01:36:18;1.70;99.90
8400;DHT22;4237;47.030;15.396;2023-02-15T01:38:47;1.80;99.90
8400;DHT22;4237;47.030;15.396;2023-02-15T01:41:17;1.80;99.90
8400;DHT22;4237;47.030;15.396;2023-02-15T01:43:52;1.80;99.90
8400;DHT22;4237;47.030;15.396;2023-02-15T01:46:31;1.90;99.90
8400;DHT22;4237;47.030;15.396;2023-02-15T01:49:11;1.80;99.90
8400;DHT22;4237;47.030;15.396;2023-02-15T01:51:42;1.80;99.90
8400;DHT22;4237;47.030;15.396;2023-02-15T01:54:31;1.80;99.90
8400;DHT22;4237;47.030;15.396;2023-02-15T01:57:03;1.80;99.90
8400;DHT22;4237;47.030;15.396;2023-02-15T01:59:34;1.80;99.90
8400;DHT22;4237;47.030;15.396;2023-02-15T02:02:04;1.80;99.90
8400;DHT22;4237;47.030;15.396;2023-02-15T02:04:47;1.80;99.90
8400;DHT22;4237;47.030;15.396;2023-02-15T02:07:10;1.80;99.90
8400;DHT22;4237;47.030;15.396;2023-02-15T02:09:40;1.80;99.90
8400;DHT22;4237;47.030;15.396;2023-02-15T02:12:09;1.90;99.90
8400;DHT22;4237;47.030;15.396;2023-02-15T02:14:39;1.90;99.90
8400;DHT22;4237;47.030;15.396;2023-02-15T02:17:27;1.90;99.90
8400;DHT22;4237;47.030;15.396;2023-02-15T02:37:23;1.90;99.90
8400;DHT22;4237;47.030;15.396;2023-02-15T02:40:11;1.90;99.90
8400;DHT22;4237;47.030;15.396;2023-02-15T02:42:41;2.00;99.90
8400;DHT22;4237;47.030;15.396;2023-02-15T02:47:47;2.00;99.90
8400;DHT22;4237;47.030;15.396;2023-02-15T02:50:21;2.00;99.90
8400;DHT22;4237;47.030;15.396;2023-02-15T02:52:49;2.00;99.90
8400;DHT22;4237;47.030;15.396;2023-02-15T02:55:30;2.00;99.90
8400;DHT22;4237;47.030;15.396;2023-02-15T03:00:34;2.00;99.90
8400;DHT22;4237;47.030;15.396;2023-02-15T03:03:11;2.00;99.90
8400;DHT22;4237;47.030;15.396;2023-02-15T03:05:37;2.00;99.90
8400;DHT22;4237;47.030;15.396;2023-02-15T03:08:09;2.00;99.90
8400;DHT22;4237;47.030;15.396;2023-02-15T03:10:39;2.00;99.90
8400;DHT22;4237;47.030;15.396;2023-02-15T03:13:09;2.10;99.90
8400;DHT22;4237;47.030;15.396;2023-02-15T03:15:39;2.10;99.90
8400;DHT22;4237;47.030;15.396;2023-02-15T03:18:30;2.10;99.90
8400;DHT22;4237;47.030;15.396;2023-02-15T03:21:00;2.10;99.90
8400;DHT22;4237;47.030;15.396;2023-02-15T03:23:31;2.00;99.90
8400;DHT22;4237;47.030;15.396;2023-02-15T03:26:03;2.00;99.90
8400;DHT22;4237;47.030;15.396;2023-02-15T03:28:35;2.00;99.90
8400;DHT22;4237;47.030;15.396;2023-02-15T03:31:06;2.00;99.90
8400;DHT22;4237;47.030;15.396;2023-02-15T03:33:38;2.00;99.90
8400;DHT22;4237;47.030;15.396;2023-02-15T03:36:17;2.10;99.90
8400;DHT22;4237;47.030;15.396;2023-02-15T03:39:03;2.20;99.90
8400;DHT22;4237;47.030;15.396;2023-02-15T03:41:32;2.20;99.90
8400;DHT22;4237;47.030;15.396;2023-02-15T03:44:15;2.20;99.90
8400;DHT22;4237;47.030;15.396;2023-02-15T03:46:45;2.20;99.90
8400;DHT22;4237;47.030;15.396;2023-02-15T03:49:28;2.20;99.90
8400;DHT22;4237;47.030;15.396;2023-02-15T03:51:50;2.20;99.90
8400;DHT22;4237;47.030;15.396;2023-02-15T03:54:25;2.20;99.90
8400;DHT22;4237;47.030;15.396;2023-02-15T03:57:22;2.10;99.90
8400;DHT22;4237;47.030;15.396;2023-02-15T04:00:19;2.20;99.90
8400;DHT22;4237;47.030;15.396;2023-02-15T04:05:45;2.20;99.90
8400;DHT22;4237;47.030;15.396;2023-02-15T04:08:14;2.10;99.90
8400;DHT22;4237;47.030;15.396;2023-02-15T04:10:42;2.10;99.90
8400;DHT22;4237;47.030;15.396;2023-02-15T04:13:22;2.10;99.90
8400;DHT22;4237;47.030;15.396;2023-02-15T04:15:53;2.20;99.90
8400;DHT22;4237;47.030;15.396;2023-02-15T04:18:35;2.30;99.90
8400;DHT22;4237;47.030;15.396;2023-02-15T04:21:24;2.30;99.90
8400;DHT22;4237;47.030;15.396;2023-02-15T04:24:12;2.30;99.90
8400;DHT22;4237;47.030;15.396;2023-02-15T04:27:00;2.30;99.90
8400;DHT22;4237;47.030;15.396;2023-02-15T04:29:30;2.30;99.90
8400;DHT22;4237;47.030;15.396;2023-02-15T04:32:00;2.40;99.90
8400;DHT22;4237;47.030;15.396;2023-02-15T04:34:30;2.30;99.90
8400;DHT22;4237;47.030;15.396;2023-02-15T04:36:59;2.40;99.90
8400;DHT22;4237;47.030;15.396;2023-02-15T04:39:27;2.40;99.90
8400;DHT22;4237;47.030;15.396;2023-02-15T04:41:56;2.40;99.90
8400;DHT22;4237;47.030;15.396;2023-02-15T04:44:24;2.30;99.90
8400;DHT22;4237;47.030;15.396;2023-02-15T04:46:53;2.30;99.90
8400;DHT22;4237;47.030;15.396;2023-02-15T04:49:22;2.30;99.90
8400;DHT22;4237;47.030;15.396;2023-02-15T04:51:51;2.40;99.90
8400;DHT22;4237;47.030;15.396;2023-02-15T04:54:19;2.40;99.90
8400;DHT22;4237;47.030;15.396;2023-02-15T04:56:48;2.40;99.90
8400;DHT22;4237;47.030;15.396;2023-02-15T04:59:16;2.40;99.90
8400;DHT22;4237;47.030;15.396;2023-02-15T05:01:45;2.50;99.90
8400;DHT22;4237;47.030;15.396;2023-02-15T05:04:14;2.50;99.90
8400;DHT22;4237;47.030;15.396;2023-02-15T05:06:42;2.50;99.90
8400;DHT22;4237;47.030;15.396;2023-02-15T05:09:12;2.50;99.90
8400;DHT22;4237;47.030;15.396;2023-02-15T05:11:40;2.50;99.90
8400;DHT22;4237;47.030;15.396;2023-02-15T05:14:09;2.40;99.90
8400;DHT22;4237;47.030;15.396;2023-02-15T05:16:38;2.40;99.90
8400;DHT22;4237;47.030;15.396;2023-02-15T05:19:06;2.40;99.90
8400;DHT22;4237;47.030;15.396;2023-02-15T05:21:35;2.40;99.90
8400;DHT22;4237;47.030;15.396;2023-02-15T05:24:04;2.40;99.90
8400;DHT22;4237;47.030;15.396;2023-02-15T05:26:35;2.40;99.90
8400;DHT22;4237;47.030;15.396;2023-02-15T05:29:14;2.30;99.90
8400;DHT22;4237;47.030;15.396;2023-02-15T05:31:42;2.30;99.90
8400;DHT22;4237;47.030;15.396;2023-02-15T05:34:13;2.30;99.90
8400;DHT22;4237;47.030;15.396;2023-02-15T05:36:41;2.30;99.90
8400;DHT22;4237;47.030;15.396;2023-02-15T05:39:10;2.30;99.90
8400;DHT22;4237;47.030;15.396;2023-02-15T05:41:38;2.30;99.90
8400;DHT22;4237;47.030;15.396;2023-02-15T05:44:07;2.30;99.90
8400;DHT22;4237;47.030;15.396;2023-02-15T05:46:35;2.20;99.90
8400;DHT22;4237;47.030;15.396;2023-02-15T05:49:04;2.30;99.90
8400;DHT22;4237;47.030;15.396;2023-02-15T05:51:33;2.30;99.90
8400;DHT22;4237;47.030;15.396;2023-02-15T05:54:02;2.30;99.90
8400;DHT22;4237;47.030;15.396;2023-02-15T05:56:31;2.20;99.90
8400;DHT22;4237;47.030;15.396;2023-02-15T05:58:59;2.30;99.90
8400;DHT22;4237;47.030;15.396;2023-02-15T06:01:28;2.30;99.90
8400;DHT22;4237;47.030;15.396;2023-02-15T06:03:56;2.30;99.90
8400;DHT22;4237;47.030;15.396;2023-02-15T06:06:25;2.20;99.90
8400;DHT22;4237;47.030;15.396;2023-02-15T06:08:54;2.10;99.90
8400;DHT22;4237;47.030;15.396;2023-02-15T06:11:22;2.10;99.90
8400;DHT22;4237;47.030;15.396;2023-02-15T06:13:51;2.00;99.90
8400;DHT22;4237;47.030;15.396;2023-02-15T06:16:19;2.00;99.90
8400;DHT22;4237;47.030;15.396;2023-02-15T06:18:48;1.90;99.90
8400;DHT22;4237;47.030;15.396;2023-02-15T06:21:17;2.00;99.90
8400;DHT22;4237;47.030;15.396;2023-02-15T06:23:45;1.90;99.90
8400;DHT22;4237;47.030;15.396;2023-02-15T06:26:14;1.90;99.90
8400;DHT22;4237;47.030;15.396;2023-02-15T06:28:42;1.80;99.90
8400;DHT22;4237;47.030;15.396;2023-02-15T06:31:11;1.80;99.90
8400;DHT22;4237;47.030;15.396;2023-02-15T06:33:40;1.80;99.90
8400;DHT22;4237;47.030;15.396;2023-02-15T06:36:08;1.90;99.90
8400;DHT22;4237;47.030;15.396;2023-02-15T06:38:37;2.00;99.90
8400;DHT22;4237;47.030;15.396;2023-02-15T06:41:06;2.10;99.90
8400;DHT22;4237;47.030;15.396;2023-02-15T06:43:34;2.20;99.90
8400;DHT22;4237;47.030;15.396;2023-02-15T06:46:03;2.20;99.90
8400;DHT22;4237;47.030;15.396;2023-02-15T06:48:32;2.20;99.90
8400;DHT22;4237;47.030;15.396;2023-02-15T06:51:00;2.30;99.90
8400;DHT22;4237;47.030;15.396;2023-02-15T06:53:29;2.30;99.90
8400;DHT22;4237;47.030;15.396;2023-02-15T06:56:06;2.30;99.90
8400;DHT22;4237;47.030;15.396;2023-02-15T06:58:42;2.30;99.90
8400;DHT22;4237;47.030;15.396;2023-02-15T07:01:08;2.30;99.90
8400;DHT22;4237;47.030;15.396;2023-02-15T07:03:36;2.40;99.90
8400;DHT22;4237;47.030;15.396;2023-02-15T07:06:05;2.40;99.90
8400;DHT22;4237;47.030;15.396;2023-02-15T07:08:36;2.50;99.90
8400;DHT22;4237;47.030;15.396;2023-02-15T07:11:06;2.60;99.90
8400;DHT22;4237;47.030;15.396;2023-02-15T07:13:52;2.70;99.90
8400;DHT22;4237;47.030;15.396;2023-02-15T07:16:21;2.70;99.90
8400;DHT22;4237;47.030;15.396;2023-02-15T07:18:49;2.80;99.90
8400;DHT22;4237;47.030;15.396;2023-02-15T07:21:18;2.90;99.90
8400;DHT22;4237;47.030;15.396;2023-02-15T07:23:47;3.00;99.90
8400;DHT22;4237;47.030;15.396;2023-02-15T07:26:15;3.00;99.90
8400;DHT22;4237;47.030;15.396;2023-02-15T07:28:44;3.10;99.90
8400;DHT22;4237;47.030;15.396;2023-02-15T07:31:12;3.20;99.90
8400;DHT22;4237;47.030;15.396;2023-02-15T07:33:41;3.20;99.90
8400;DHT22;4237;47.030;15.396;2023-02-15T07:36:10;3.30;99.90
8400;DHT22;4237;47.030;15.396;2023-02-15T07:38:41;3.30;99.90
8400;DHT22;4237;47.030;15.396;2023-02-15T07:41:13;3.30;99.90
8400;DHT22;4237;47.030;15.396;2023-02-15T07:43:43;3.30;99.90
8400;DHT22;4237;47.030;15.396;2023-02-15T07:46:14;3.30;99.90
8400;DHT22;4237;47.030;15.396;2023-02-15T07:48:45;3.20;99.90
8400;DHT22;4237;47.030;15.396;2023-02-15T07:51:13;3.10;99.90
8400;DHT22;4237;47.030;15.396;2023-02-15T07:53:43;3.20;99.90
8400;DHT22;4237;47.030;15.396;2023-02-15T07:56:14;3.20;99.90
8400;DHT22;4237;47.030;15.396;2023-02-15T07:58:43;3.50;99.90
8400;DHT22;4237;47.030;15.396;2023-02-15T08:01:34;3.60;99.90
8400;DHT22;4237;47.030;15.396;2023-02-15T08:04:00;3.70;99.90
8400;DHT22;4237;47.030;15.396;2023-02-15T08:06:32;3.80;99.90
8400;DHT22;4237;47.030;15.396;2023-02-15T08:09:07;3.80;99.90
8400;DHT22;4237;47.030;15.396;2023-02-15T08:11:33;3.80;99.90
8400;DHT22;4237;47.030;15.396;2023-02-15T08:14:12;3.80;99.90
8400;DHT22;4237;47.030;15.396;2023-02-15T08:16:48;3.70;99.90
8400;DHT22;4237;47.030;15.396;2023-02-15T08:19:20;3.60;99.90
8400;DHT22;4237;47.030;15.396;2023-02-15T08:22:01;3.60;99.90
8400;DHT22;4237;47.030;15.396;2023-02-15T08:24:22;3.40;99.90
8400;DHT22;4237;47.030;15.396;2023-02-15T08:26:52;3.40;99.90
8400;DHT22;4237;47.030;15.396;2023-02-15T08:29:23;3.50;99.90
8400;DHT22;4237;47.030;15.396;2023-02-15T08:32:01;3.50;99.90
8400;DHT22;4237;47.030;15.396;2023-02-15T08:34:32;3.40;99.90
8400;DHT22;4237;47.030;15.396;2023-02-15T08:37:01;3.50;99.90
8400;DHT22;4237;47.030;15.396;2023-02-15T08:39:30;3.60;99.90
8400;DHT22;4237;47.030;15.396;2023-02-15T08:41:59;3.70;99.90
8400;DHT22;4237;47.030;15.396;2023-02-15T08:44:28;4.00;99.90
8400;DHT22;4237;47.030;15.396;2023-02-15T08:46:57;4.20;99.90
8400;DHT22;4237;47.030;15.396;2023-02-15T08:49:27;4.00;99.90
8400;DHT22;4237;47.030;15.396;2023-02-15T08:51:56;4.00;99.90
8400;DHT22;4237;47.030;15.396;2023-02-15T08:54:24;4.10;99.90
8400;DHT22;4237;47.030;15.396;2023-02-15T08:56:53;4.10;99.90
8400;DHT22;4237;47.030;15.396;2023-02-15T08:59:23;4.20;99.90
8400;DHT22;4237;47.030;15.396;2023-02-15T09:01:55;4.40;99.90
8400;DHT22;4237;47.030;15.396;2023-02-15T09:04:24;4.60;99.90
8400;DHT22;4237;47.030;15.396;2023-02-15T09:06:52;4.50;99.90
8400;DHT22;4237;47.030;15.396;2023-02-15T09:09:22;4.80;99.90
8400;DHT22;4237;47.030;15.396;2023-02-15T09:11:52;4.80;99.90
8400;DHT22;4237;47.030;15.396;2023-02-15T09:14:21;5.00;99.90
8400;DHT22;4237;47.030;15.396;2023-02-15T09:16:52;5.20;99.90
8400;DHT22;4237;47.030;15.396;2023-02-15T09:19:23;5.30;99.90
8400;DHT22;4237;47.030;15.396;2023-02-15T09:21:51;5.40;99.90
8400;DHT22;4237;47.030;15.396;2023-02-15T09:24:20;5.00;99.90
8400;DHT22;4237;47.030;15.396;2023-02-15T09:26:49;4.60;99.90
8400;DHT22;4237;47.030;15.396;2023-02-15T09:29:18;4.60;99.90
8400;DHT22;4237;47.030;15.396;2023-02-15T09:31:49;4.80;99.90
8400;DHT22;4237;47.030;15.396;2023-02-15T09:34:20;4.80;99.90
8400;DHT22;4237;47.030;15.396;2023-02-15T09:36:50;4.80;99.90
8400;DHT22;4237;47.030;15.396;2023-02-15T09:39:24;5.00;99.90
8400;DHT22;4237;47.030;15.396;2023-02-15T09:50:51;5.80;99.90
8400;DHT22;4237;47.030;15.396;2023-02-15T09:53:45;9.40;99.90
8400;DHT22;4237;47.030;15.396;2023-02-15T10:01:48;10.80;99.90
8400;DHT22;4237;47.030;15.396;2023-02-15T10:10:19;8.50;99.90
8400;DHT22;4237;47.030;15.396;2023-02-15T10:15:58;7.00;99.90
8400;DHT22;4237;47.030;15.396;2023-02-15T10:21:30;6.40;99.90
8400;DHT22;4237;47.030;15.396;2023-02-15T10:26:47;6.10;99.90
8400;DHT22;4237;47.030;15.396;2023-02-15T10:29:22;5.50;99.90
8400;DHT22;4237;47.030;15.396;2023-02-15T10:31:50;5.20;99.90
8400;DHT22;4237;47.030;15.396;2023-02-15T10:34:37;5.40;99.90
8400;DHT22;4237;47.030;15.396;2023-02-15T10:40:09;5.80;99.90
8400;DHT22;4237;47.030;15.396;2023-02-15T10:51:53;6.40;99.90
8400;DHT22;4237;47.030;15.396;2023-02-15T10:59:29;6.40;99.90
8400;DHT22;4237;47.030;15.396;2023-02-15T11:02:02;6.60;99.90
8400;DHT22;4237;47.030;15.396;2023-02-15T11:07:38;6.50;99.90
8400;DHT22;4237;47.030;15.396;2023-02-15T11:12:56;6.60;99.90
8400;DHT22;4237;47.030;15.396;2023-02-15T11:15:41;6.40;99.90
8400;DHT22;4237;47.030;15.396;2023-02-15T11:21:02;6.50;99.90
8400;DHT22;4237;47.030;15.396;2023-02-15T11:23:32;6.60;99.90
8400;DHT22;4237;47.030;15.396;2023-02-15T11:26:04;7.20;99.90
8400;DHT22;4237;47.030;15.396;2023-02-15T11:31:21;7.50;99.90
8400;DHT22;4237;47.030;15.396;2023-02-15T11:33:58;7.40;99.90
8400;DHT22;4237;47.030;15.396;2023-02-15T11:36:34;7.60;99.90
8400;DHT22;4237;47.030;15.396;2023-02-15T11:39:08;7.70;99.90
8400;DHT22;4237;47.030;15.396;2023-02-15T11:41:46;7.80;99.90
8400;DHT22;4237;47.030;15.396;2023-02-15T11:44:22;8.10;99.90
8400;DHT22;4237;47.030;15.396;2023-02-15T11:46:51;7.50;99.90
8400;DHT22;4237;47.030;15.396;2023-02-15T11:49:30;7.10;99.90
8400;DHT22;4237;47.030;15.396;2023-02-15T11:52:07;6.80;99.90
8400;DHT22;4237;47.030;15.396;2023-02-15T11:54:42;7.50;99.90
8400;DHT22;4237;47.030;15.396;2023-02-15T11:57:37;8.10;99.90
8400;DHT22;4237;47.030;15.396;2023-02-15T12:00:06;9.90;99.90
8400;DHT22;4237;47.030;15.396;2023-02-15T12:02:35;10.20;99.90
8400;DHT22;4237;47.030;15.396;2023-02-15T12:05:10;11.80;99.90
8400;DHT22;4237;47.030;15.396;2023-02-15T12:08:02;10.90;99.90
8400;DHT22;4237;47.030;15.396;2023-02-15T12:10:36;10.00;99.90
8400;DHT22;4237;47.030;15.396;2023-02-15T12:13:16;9.20;99.90
8400;DHT22;4237;47.030;15.396;2023-02-15T12:15:51;9.90;99.90
8400;DHT22;4237;47.030;15.396;2023-02-15T12:18:38;11.10;99.90
8400;DHT22;4237;47.030;15.396;2023-02-15T12:21:14;11.70;99.90
8400;DHT22;4237;47.030;15.396;2023-02-15T12:23:55;12.00;99.90
8400;DHT22;4237;47.030;15.396;2023-02-15T12:26:34;12.90;99.90
8400;DHT22;4237;47.030;15.396;2023-02-15T12:29:07;14.70;99.90
8400;DHT22;4237;47.030;15.396;2023-02-15T12:31:40;15.20;99.90
8400;DHT22;4237;47.030;15.396;2023-02-15T12:37:00;15.30;99.90
8400;DHT22;4237;47.030;15.396;2023-02-15T12:39:33;15.50;99.90
8400;DHT22;4237;47.030;15.396;2023-02-15T12:42:05;15.80;99.90
8400;DHT22;4237;47.030;15.396;2023-02-15T12:44:35;16.10;99.90
8400;DHT22;4237;47.030;15.396;2023-02-15T12:49:39;15.60;99.90
8400;DHT22;4237;47.030;15.396;2023-02-15T12:54:49;15.60;99.90
8400;DHT22;4237;47.030;15.396;2023-02-15T12:57:29;14.10;99.90
8400;DHT22;4237;47.030;15.396;2023-02-15T13:00:04;15.60;99.90
8400;DHT22;4237;47.030;15.396;2023-02-15T13:02:47;14.80;99.90
8400;DHT22;4237;47.030;15.396;2023-02-15T13:05:31;14.30;99.90
8400;DHT22;4237;47.030;15.396;2023-02-15T13:08:03;14.80;99.90
8400;DHT22;4237;47.030;15.396;2023-02-15T13:10:41;13.20;99.90
8400;DHT22;4237;47.030;15.396;2023-02-15T13:13:18;13.00;99.90
8400;DHT22;4237;47.030;15.396;2023-02-15T13:15:50;13.40;99.90
8400;DHT22;4237;47.030;15.396;2023-02-15T13:18:31;13.00;99.90
8400;DHT22;4237;47.030;15.396;2023-02-15T13:21:12;14.30;99.90
8400;DHT22;4237;47.030;15.396;2023-02-15T13:23:44;15.40;99.90
8400;DHT22;4237;47.030;15.396;2023-02-15T13:26:20;14.50;99.90
8400;DHT22;4237;47.030;15.396;2023-02-15T13:28:46;14.10;99.90
8400;DHT22;4237;47.030;15.396;2023-02-15T13:31:19;14.40;99.90
8400;DHT22;4237;47.030;15.396;2023-02-15T13:34:03;14.70;99.90
8400;DHT22;4237;47.030;15.396;2023-02-15T13:36:37;14.70;99.90
8400;DHT22;4237;47.030;15.396;2023-02-15T13:44:57;13.30;99.90
8400;DHT22;4237;47.030;15.396;2023-02-15T13:53:28;14.50;99.90
8400;DHT22;4237;47.030;15.396;2023-02-15T13:56:04;14.70;99.90
8400;DHT22;4237;47.030;15.396;2023-02-15T13:58:42;13.40;99.90
8400;DHT22;4237;47.030;15.396;2023-02-15T14:01:19;13.30;99.90
8400;DHT22;4237;47.030;15.396;2023-02-15T14:09:28;11.80;99.90
8400;DHT22;4237;47.030;15.396;2023-02-15T14:18:04;10.40;99.90
8400;DHT22;4237;47.030;15.396;2023-02-15T14:20:39;10.10;99.90
8400;DHT22;4237;47.030;15.396;2023-02-15T14:26:02;10.80;99.90
8400;DHT22;4237;47.030;15.396;2023-02-15T14:28:43;11.10;99.90
8400;DHT22;4237;47.030;15.396;2023-02-15T14:31:13;10.90;99.90
8400;DHT22;4237;47.030;15.396;2023-02-15T14:33:56;10.30;99.90
8400;DHT22;4237;47.030;15.396;2023-02-15T14:36:27;10.40;99.90
8400;DHT22;4237;47.030;15.396;2023-02-15T14:39:14;11.30;99.90
8400;DHT22;4237;47.030;15.396;2023-02-15T14:41:44;11.20;99.90
8400;DHT22;4237;47.030;15.396;2023-02-15T14:44:26;11.10;99.90
8400;DHT22;4237;47.030;15.396;2023-02-15T14:49:41;9.80;99.90
8400;DHT22;4237;47.030;15.396;2023-02-15T14:52:11;8.90;99.90
8400;DHT22;4237;47.030;15.396;2023-02-15T14:59:55;10.20;99.90
8400;DHT22;4237;47.030;15.396;2023-02-15T15:02:40;10.70;99.90
8400;DHT22;4237;47.030;15.396;2023-02-15T15:05:29;10.90;99.90
8400;DHT22;4237;47.030;15.396;2023-02-15T15:07:58;10.90;99.90
8400;DHT22;4237;47.030;15.396;2023-02-15T15:10:45;10.00;99.90
8400;DHT22;4237;47.030;15.396;2023-02-15T15:13:35;8.60;99.90
8400;DHT22;4237;47.030;15.396;2023-02-15T15:16:24;8.40;99.90
8400;DHT22;4237;47.030;15.396;2023-02-15T15:18:54;7.40;99.90
8400;DHT22;4237;47.030;15.396;2023-02-15T15:21:52;7.00;99.90
8400;DHT22;4237;47.030;15.396;2023-02-15T15:35:35;7.10;99.90
8400;DHT22;4237;47.030;15.396;2023-02-15T15:41:07;6.80;99.90
8400;DHT22;4237;47.030;15.396;2023-02-15T15:49:14;5.10;99.90
8400;DHT22;4237;47.030;15.396;2023-02-15T15:51:34;4.60;99.90
8400;DHT22;4237;47.030;15.396;2023-02-15T15:54:04;4.40;99.90
8400;DHT22;4237;47.030;15.396;2023-02-15T15:56:34;4.20;99.90
8400;DHT22;4237;47.030;15.396;2023-02-15T15:59:12;4.10;99.90
8400;DHT22;4237;47.030;15.396;2023-02-15T16:01:46;3.90;99.90
8400;DHT22;4237;47.030;15.396;2023-02-15T16:04:34;3.50;99.90
8400;DHT22;4237;47.030;15.396;2023-02-15T16:10:00;3.00;99.90
8400;DHT22;4237;47.030;15.396;2023-02-15T16:12:34;2.80;99.90
8400;DHT22;4237;47.030;15.396;2023-02-15T16:15:16;2.60;99.90
8400;DHT22;4237;47.030;15.396;2023-02-15T16:17:48;2.50;99.90
8400;DHT22;4237;47.030;15.396;2023-02-15T16:20:20;2.40;99.90
8400;DHT22;4237;47.030;15.396;2023-02-15T16:25:31;2.20;99.90
8400;DHT22;4237;47.030;15.396;2023-02-15T16:28:11;2.00;99.90
8400;DHT22;4237;47.030;15.396;2023-02-15T16:30:37;1.90;99.90
8400;DHT22;4237;47.030;15.396;2023-02-15T16:33:09;1.80;99.90
8400;DHT22;4237;47.030;15.396;2023-02-15T16:35:53;1.70;99.90
8400;DHT22;4237;47.030;15.396;2023-02-15T16:41:21;1.50;99.90
8400;DHT22;4237;47.030;15.396;2023-02-15T16:43:48;1.30;99.90
8400;DHT22;4237;47.030;15.396;2023-02-15T16:46:24;1.30;99.90
8400;DHT22;4237;47.030;15.396;2023-02-15T16:48:54;1.20;99.90
8400;DHT22;4237;47.030;15.396;2023-02-15T16:51:26;1.10;99.90
8400;DHT22;4237;47.030;15.396;2023-02-15T16:53:58;1.00;99.90
8400;DHT22;4237;47.030;15.396;2023-02-15T16:56:32;1.00;99.90
8400;DHT22;4237;47.030;15.396;2023-02-15T16:59:01;1.00;99.90
8400;DHT22;4237;47.030;15.396;2023-02-15T17:01:32;0.90;99.90
8400;DHT22;4237;47.030;15.396;2023-02-15T17:07:04;0.70;99.90
8400;DHT22;4237;47.030;15.396;2023-02-15T17:09:34;0.70;99.90
8400;DHT22;4237;47.030;15.396;2023-02-15T17:12:03;0.70;99.90
8400;DHT22;4237;47.030;15.396;2023-02-15T17:14:37;0.60;99.90
8400;DHT22;4237;47.030;15.396;2023-02-15T17:17:11;0.50;99.90
8400;DHT22;4237;47.030;15.396;2023-02-15T17:19:53;0.40;99.90
8400;DHT22;4237;47.030;15.396;2023-02-15T17:22:25;0.30;99.90
8400;DHT22;4237;47.030;15.396;2023-02-15T17:25:00;0.30;99.90
8400;DHT22;4237;47.030;15.396;2023-02-15T17:27:32;0.10;99.90
8400;DHT22;4237;47.030;15.396;2023-02-15T17:30:14;0.10;99.90
8400;DHT22;4237;47.030;15.396;2023-02-15T17:32:53;0.00;99.90
8400;DHT22;4237;47.030;15.396;2023-02-15T17:35:35;-0.10;99.90
8400;DHT22;4237;47.030;15.396;2023-02-15T17:38:05;-0.20;99.90
8400;DHT22;4237;47.030;15.396;2023-02-15T17:40:37;-0.20;99.90
8400;DHT22;4237;47.030;15.396;2023-02-15T17:43:07;-0.30;99.90
8400;DHT22;4237;47.030;15.396;2023-02-15T17:45:43;-0.30;99.90
8400;DHT22;4237;47.030;15.396;2023-02-15T17:48:25;-0.40;99.90
8400;DHT22;4237;47.030;15.396;2023-02-15T17:50:55;-0.50;99.90
8400;DHT22;4237;47.030;15.396;2023-02-15T17:53:25;-0.60;99.90
8400;DHT22;4237;47.030;15.396;2023-02-15T17:55:54;-0.60;99.90
8400;DHT22;4237;47.030;15.396;2023-02-15T17:58:24;-0.60;99.90
8400;DHT22;4237;47.030;15.396;2023-02-15T18:00:55;-0.70;99.90
8400;DHT22;4237;47.030;15.396;2023-02-15T18:03:45;-0.70;99.90
8400;DHT22;4237;47.030;15.396;2023-02-15T18:06:35;-0.60;99.90
8400;DHT22;4237;47.030;15.396;2023-02-15T18:09:22;-0.70;99.90
8400;DHT22;4237;47.030;15.396;2023-02-15T18:12:21;-0.70;99.90
8400;DHT22;4237;47.030;15.396;2023-02-15T18:14:51;-0.70;99.90
8400;DHT22;4237;47.030;15.396;2023-02-15T18:17:34;-0.70;99.90
8400;DHT22;4237;47.030;15.396;2023-02-15T18:20:00;-0.70;99.90
8400;DHT22;4237;47.030;15.396;2023-02-15T18:22:33;-0.80;99.90
8400;DHT22;4237;47.030;15.396;2023-02-15T18:25:04;-0.80;99.90
8400;DHT22;4237;47.030;15.396;2023-02-15T18:27:36;-0.80;99.90
8400;DHT22;4237;47.030;15.396;2023-02-15T18:30:19;-0.80;99.90
8400;DHT22;4237;47.030;15.396;2023-02-15T18:32:45;-0.90;99.90
8400;DHT22;4237;47.030;15.396;2023-02-15T18:35:16;-0.90;99.90
8400;DHT22;4237;47.030;15.396;2023-02-15T18:37:47;-0.90;99.90
8400;DHT22;4237;47.030;15.396;2023-02-15T18:43:11;-1.00;99.90
8400;DHT22;4237;47.030;15.396;2023-02-15T18:45:41;-1.10;99.90
8400;DHT22;4237;47.030;15.396;2023-02-15T18:48:11;-1.10;99.90
8400;DHT22;4237;47.030;15.396;2023-02-15T18:50:41;-1.10;99.90
8400;DHT22;4237;47.030;15.396;2023-02-15T18:53:14;-1.20;99.90
8400;DHT22;4237;47.030;15.396;2023-02-15T18:55:45;-1.20;99.90
8400;DHT22;4237;47.030;15.396;2023-02-15T18:58:23;-1.20;99.90
8400;DHT22;4237;47.030;15.396;2023-02-15T19:00:49;-1.20;99.90
8400;DHT22;4237;47.030;15.396;2023-02-15T19:03:19;-1.20;99.90
8400;DHT22;4237;47.030;15.396;2023-02-15T19:05:51;-1.20;99.90
8400;DHT22;4237;47.030;15.396;2023-02-15T19:08:22;-1.30;99.90
8400;DHT22;4237;47.030;15.396;2023-02-15T19:10:54;-1.40;99.90
8400;DHT22;4237;47.030;15.396;2023-02-15T19:13:24;-1.40;99.90